sensor_id;sensor_type;location;lat;lon;timestamp;temperature;humidity
15452;DHT22;7827;53.594;9.938;2023-11-22T00:00:05;3.40;99.90
15452;DHT22;7827;53.594;9.938;2023-11-22T00:02:35;3.30;99.90
15452;DHT22;7827;53.594;9.938;2023-11-22T00:05:06;3.20;99.90
15452;DHT22;7827;53.594;9.938;2023-11-22T00:07:36;3.10;99.90
15452;DHT22;7827;53.594;9.938;2023-11-22T00:10:06;3.00;99.90
15452;DHT22;7827;53.594;9.938;2023-11-22T00:12:35;2.80;99.90
15452;DHT22;7827;53.594;9.938;2023-11-22T00:15:06;2.80;99.90
15452;DHT22;7827;53.594;9.938;2023-11-22T00:17:38;2.80;99.90
15452;DHT22;7827;53.594;9.938;2023-11-22T00:20:09;2.80;99.90
15452;DHT22;7827;53.594;9.938;2023-11-22T00:22:39;2.90;99.90
15452;DHT22;7827;53.594;9.938;2023-11-22T00:25:08;2.90;99.90
15452;DHT22;7827;53.594;9.938;2023-11-22T00:27:40;2.90;99.90
15452;DHT22;7827;53.594;9.938;2023-11-22T00:30:10;2.90;99.90
15452;DHT22;7827;53.594;9.938;2023-11-22T00:32:39;2.90;99.90
15452;DHT22;7827;53.594;9.938;2023-11-22T00:35:10;3.00;99.90
15452;DHT22;7827;53.594;9.938;2023-11-22T00:37:39;3.10;99.90
15452;DHT22;7827;53.594;9.938;2023-11-22T00:40:08;3.10;99.90
15452;DHT22;7827;53.594;9.938;2023-11-22T00:42:39;3.00;99.90
15452;DHT22;7827;53.594;9.938;2023-11-22T00:45:10;2.80;99.90
15452;DHT22;7827;53.594;9.938;2023-11-22T00:47:38;2.80;99.90
15452;DHT22;7827;53.594;9.938;2023-11-22T00:50:07;2.70;99.90
15452;DHT22;7827;53.594;9.938;2023-11-22T00:52:37;2.60;99.90
15452;DHT22;7827;53.594;9.938;2023-11-22T00:55:07;2.60;99.90
15452;DHT22;7827;53.594;9.938;2023-11-22T00:57:35;2.60;99.90
15452;DHT22;7827;53.594;9.938;2023-11-22T01:00:05;2.60;99.90
15452;DHT22;7827;53.594;9.938;2023-11-22T01:02:36;2.70;99.90
15452;DHT22;7827;53.594;9.938;2023-11-22T01:05:06;2.60;99.90
15452;DHT22;7827;53.594;9.938;2023-11-22T01:07:39;2.60;99.90
15452;DHT22;7827;53.594;9.938;2023-11-22T01:10:08;2.60;99.90
15452;DHT22;7827;53.594;9.938;2023-11-22T01:12:37;2.60;99.90
15452;DHT22;7827;53.594;9.938;2023-11-22T01:15:07;2.50;99.90
15452;DHT22;7827;53.594;9.938;2023-11-22T01:17:36;2.50;99.90
15452;DHT22;7827;53.594;9.938;2023-11-22T01:20:06;2.40;99.90
15452;DHT22;7827;53.594;9.938;2023-11-22T01:22:39;2.50;99.90
15452;DHT22;7827;53.594;9.938;2023-11-22T01:25:09;2.50;99.90
15452;DHT22;7827;53.594;9.938;2023-11-22T01:27:37;2.40;99.90
15452;DHT22;7827;53.594;9.938;2023-11-22T01:30:06;2.60;99.90
15452;DHT22;7827;53.594;9.938;2023-11-22T01:32:35;2.60;99.90
15452;DHT22;7827;53.594;9.938;2023-11-22T01:35:04;2.50;99.90
15452;DHT22;7827;53.594;9.938;2023-11-22T01:37:33;2.40;99.90
15452;DHT22;7827;53.594;9.938;2023-11-22T01:40:04;2.30;99.90
15452;DHT22;7827;53.594;9.938;2023-11-22T01:42:35;2.30;99.90
15452;DHT22;7827;53.594;9.938;2023-11-22T01:45:07;2.30;99.90
15452;DHT22;7827;53.594;9.938;2023-11-22T01:47:37;2.40;99.90
15452;DHT22;7827;53.594;9.938;2023-11-22T01:50:08;2.40;99.90
15452;DHT22;7827;53.594;9.938;2023-11-22T01:52:38;2.40;99.90
15452;DHT22;7827;53.594;9.938;2023-11-22T01:55:09;2.30;99.90
15452;DHT22;7827;53.594;9.938;2023-11-22T01:57:37;2.30;99.90
15452;DHT22;7827;53.594;9.938;2023-11-22T02:00:07;2.10;99.90
15452;DHT22;7827;53.594;9.938;2023-11-22T02:02:42;2.00;99.90
15452;DHT22;7827;53.594;9.938;2023-11-22T02:05:11;1.90;99.90
15452;DHT22;7827;53.594;9.938;2023-11-22T02:07:40;1.90;99.90
15452;DHT22;7827;53.594;9.938;2023-11-22T02:10:11;1.90;99.90
15452;DHT22;7827;53.594;9.938;2023-11-22T02:12:41;1.90;99.90
15452;DHT22;7827;53.594;9.938;2023-11-22T02:15:10;1.90;99.90
15452;DHT22;7827;53.594;9.938;2023-11-22T02:17:38;1.90;99.90
15452;DHT22;7827;53.594;9.938;2023-11-22T02:20:07;1.90;99.90
15452;DHT22;7827;53.594;9.938;2023-11-22T02:22:45;2.00;99.90
15452;DHT22;7827;53.594;9.938;2023-11-22T02:25:16;2.00;99.90
15452;DHT22;7827;53.594;9.938;2023-11-22T02:27:44;1.90;99.90
15452;DHT22;7827;53.594;9.938;2023-11-22T02:30:13;1.90;99.90
15452;DHT22;7827;53.594;9.938;2023-11-22T02:32:42;1.90;99.90
15452;DHT22;7827;53.594;9.938;2023-11-22T02:35:12;2.00;99.90
15452;DHT22;7827;53.594;9.938;2023-11-22T02:37:43;1.90;99.90
15452;DHT22;7827;53.594;9.938;2023-11-22T02:40:18;1.80;99.90
15452;DHT22;7827;53.594;9.938;2023-11-22T02:42:48;1.70;99.90
15452;DHT22;7827;53.594;9.938;2023-11-22T02:45:21;1.80;99.90
15452;DHT22;7827;53.594;9.938;2023-11-22T02:47:52;1.70;99.90
15452;DHT22;7827;53.594;9.938;2023-11-22T02:50:20;1.70;99.90
15452;DHT22;7827;53.594;9.938;2023-11-22T02:52:49;1.70;99.90
15452;DHT22;7827;53.594;9.938;2023-11-22T02:55:19;1.70;99.90
15452;DHT22;7827;53.594;9.938;2023-11-22T02:57:47;1.70;99.90
15452;DHT22;7827;53.594;9.938;2023-11-22T03:00:16;1.70;99.90
15452;DHT22;7827;53.594;9.938;2023-11-22T03:02:46;1.70;99.90
15452;DHT22;7827;53.594;9.938;2023-11-22T03:05:15;1.70;99.90
15452;DHT22;7827;53.594;9.938;2023-11-22T03:07:43;1.70;99.90
15452;DHT22;7827;53.594;9.938;2023-11-22T03:10:12;1.80;99.90
15452;DHT22;7827;53.594;9.938;2023-11-22T03:12:42;1.90;99.90
15452;DHT22;7827;53.594;9.938;2023-11-22T03:15:10;1.90;99.90
15452;DHT22;7827;53.594;9.938;2023-11-22T03:17:39;1.90;99.90
15452;DHT22;7827;53.594;9.938;2023-11-22T03:20:09;1.80;99.90
15452;DHT22;7827;53.594;9.938;2023-11-22T03:22:38;1.70;99.90
15452;DHT22;7827;53.594;9.938;2023-11-22T03:25:07;1.70;99.90
15452;DHT22;7827;53.594;9.938;2023-11-22T03:27:37;1.70;99.90
15452;DHT22;7827;53.594;9.938;2023-11-22T03:30:08;1.60;99.90
15452;DHT22;7827;53.594;9.938;2023-11-22T03:32:39;1.70;99.90
15452;DHT22;7827;53.594;9.938;2023-11-22T03:35:08;1.60;99.90
15452;DHT22;7827;53.594;9.938;2023-11-22T03:37:37;1.60;99.90
15452;DHT22;7827;53.594;9.938;2023-11-22T03:40:06;1.50;99.90
15452;DHT22;7827;53.594;9.938;2023-11-22T03:42:37;1.60;99.90
15452;DHT22;7827;53.594;9.938;2023-11-22T03:45:08;1.50;99.90
15452;DHT22;7827;53.594;9.938;2023-11-22T03:47:39;1.50;99.90
15452;DHT22;7827;53.594;9.938;2023-11-22T03:50:07;1.50;99.90
15452;DHT22;7827;53.594;9.938;2023-11-22T03:52:37;1.50;99.90
15452;DHT22;7827;53.594;9.938;2023-11-22T03:55:06;1.60;99.90
15452;DHT22;7827;53.594;9.938;2023-11-22T03:57:35;1.60;99.90
15452;DHT22;7827;53.594;9.938;2023-11-22T04:00:05;1.60;99.90
15452;DHT22;7827;53.594;9.938;2023-11-22T04:02:40;1.50;99.90
15452;DHT22;7827;53.594;9.938;2023-11-22T04:05:10;1.40;99.90
15452;DHT22;7827;53.594;9.938;2023-11-22T04:07:39;1.40;99.90
15452;DHT22;7827;53.594;9.938;2023-11-22T04:10:08;1.50;99.90
15452;DHT22;7827;53.594;9.938;2023-11-22T04:12:37;1.50;99.90
15452;DHT22;7827;53.594;9.938;2023-11-22T04:15:06;1.40;99.90
15452;DHT22;7827;53.594;9.938;2023-11-22T04:17:37;1.40;99.90
15452;DHT22;7827;53.594;9.938;2023-11-22T04:20:09;1.30;99.90
15452;DHT22;7827;53.594;9.938;2023-11-22T04:22:43;1.30;99.90
15452;DHT22;7827;53.594;9.938;2023-11-22T04:25:13;1.30;99.90
15452;DHT22;7827;53.594;9.938;2023-11-22T04:27:41;1.40;99.90
15452;DHT22;7827;53.594;9.938;2023-11-22T04:30:11;1.30;99.90
15452;DHT22;7827;53.594;9.938;2023-11-22T04:32:41;1.30;99.90
15452;DHT22;7827;53.594;9.938;2023-11-22T04:35:11;1.30;99.90
15452;DHT22;7827;53.594;9.938;2023-11-22T04:37:40;1.30;99.90
15452;DHT22;7827;53.594;9.938;2023-11-22T04:40:10;1.30;99.90
15452;DHT22;7827;53.594;9.938;2023-11-22T04:42:41;1.30;99.90
15452;DHT22;7827;53.594;9.938;2023-11-22T04:45:09;1.40;99.90
15452;DHT22;7827;53.594;9.938;2023-11-22T04:47:38;1.40;99.90
15452;DHT22;7827;53.594;9.938;2023-11-22T04:50:07;1.40;99.90
15452;DHT22;7827;53.594;9.938;2023-11-22T04:52:39;1.40;99.90
15452;DHT22;7827;53.594;9.938;2023-11-22T04:55:08;1.20;99.90
15452;DHT22;7827;53.594;9.938;2023-11-22T04:57:37;1.20;99.90
15452;DHT22;7827;53.594;9.938;2023-11-22T05:00:08;1.20;99.90
15452;DHT22;7827;53.594;9.938;2023-11-22T05:02:38;1.20;99.90
15452;DHT22;7827;53.594;9.938;2023-11-22T05:05:07;1.20;99.90
15452;DHT22;7827;53.594;9.938;2023-11-22T05:07:39;1.20;99.90
15452;DHT22;7827;53.594;9.938;2023-11-22T05:10:08;1.20;99.90
15452;DHT22;7827;53.594;9.938;2023-11-22T05:12:37;1.20;99.90
15452;DHT22;7827;53.594;9.938;2023-11-22T05:15:07;1.30;99.90
15452;DHT22;7827;53.594;9.938;2023-11-22T05:17:36;1.40;99.90
15452;DHT22;7827;53.594;9.938;2023-11-22T05:20:06;1.40;99.90
15452;DHT22;7827;53.594;9.938;2023-11-22T05:22:36;1.40;99.90
15452;DHT22;7827;53.594;9.938;2023-11-22T05:25:07;1.20;99.90
15452;DHT22;7827;53.594;9.938;2023-11-22T05:27:35;1.10;99.90
15452;DHT22;7827;53.594;9.938;2023-11-22T05:30:05;1.10;99.90
15452;DHT22;7827;53.594;9.938;2023-11-22T05:32:34;1.10;99.90
15452;DHT22;7827;53.594;9.938;2023-11-22T05:35:03;1.10;99.90
15452;DHT22;7827;53.594;9.938;2023-11-22T05:37:33;1.10;99.90
15452;DHT22;7827;53.594;9.938;2023-11-22T05:40:03;1.10;99.90
15452;DHT22;7827;53.594;9.938;2023-11-22T05:42:32;1.10;99.90
15452;DHT22;7827;53.594;9.938;2023-11-22T05:45:02;1.10;99.90
15452;DHT22;7827;53.594;9.938;2023-11-22T05:47:32;1.20;99.90
15452;DHT22;7827;53.594;9.938;2023-11-22T05:50:00;1.20;99.90
15452;DHT22;7827;53.594;9.938;2023-11-22T05:52:29;1.20;99.90
15452;DHT22;7827;53.594;9.938;2023-11-22T05:54:57;1.20;99.90
15452;DHT22;7827;53.594;9.938;2023-11-22T05:57:27;1.20;99.90
15452;DHT22;7827;53.594;9.938;2023-11-22T05:59:55;1.20;99.90
15452;DHT22;7827;53.594;9.938;2023-11-22T06:02:23;1.20;99.90
15452;DHT22;7827;53.594;9.938;2023-11-22T06:04:52;1.30;99.90
15452;DHT22;7827;53.594;9.938;2023-11-22T06:07:20;1.20;99.90
15452;DHT22;7827;53.594;9.938;2023-11-22T06:09:49;1.20;99.90
15452;DHT22;7827;53.594;9.938;2023-11-22T06:12:17;1.20;99.90
15452;DHT22;7827;53.594;9.938;2023-11-22T06:14:48;1.20;99.90
15452;DHT22;7827;53.594;9.938;2023-11-22T06:17:16;1.20;99.90
15452;DHT22;7827;53.594;9.938;2023-11-22T06:19:45;1.20;99.90
15452;DHT22;7827;53.594;9.938;2023-11-22T06:22:13;1.20;99.90
15452;DHT22;7827;53.594;9.938;2023-11-22T06:24:43;1.20;99.90
15452;DHT22;7827;53.594;9.938;2023-11-22T06:27:15;1.20;99.90
15452;DHT22;7827;53.594;9.938;2023-11-22T06:29:43;1.20;99.90
15452;DHT22;7827;53.594;9.938;2023-11-22T06:32:13;1.20;99.90
15452;DHT22;7827;53.594;9.938;2023-11-22T06:34:42;1.20;99.90
15452;DHT22;7827;53.594;9.938;2023-11-22T06:37:10;1.30;99.90
15452;DHT22;7827;53.594;9.938;2023-11-22T06:39:39;1.30;99.90
15452;DHT22;7827;53.594;9.938;2023-11-22T06:42:08;1.30;99.90
15452;DHT22;7827;53.594;9.938;2023-11-22T06:44:37;1.30;99.90
15452;DHT22;7827;53.594;9.938;2023-11-22T06:47:06;1.30;99.90
15452;DHT22;7827;53.594;9.938;2023-11-22T06:49:36;1.30;99.90
15452;DHT22;7827;53.594;9.938;2023-11-22T06:52:05;1.40;99.90
15452;DHT22;7827;53.594;9.938;2023-11-22T06:54:35;1.40;99.90
15452;DHT22;7827;53.594;9.938;2023-11-22T06:57:04;1.40;99.90
15452;DHT22;7827;53.594;9.938;2023-11-22T06:59:33;1.50;99.90
15452;DHT22;7827;53.594;9.938;2023-11-22T07:02:01;1.50;99.90
15452;DHT22;7827;53.594;9.938;2023-11-22T07:04:30;1.50;99.90
15452;DHT22;7827;53.594;9.938;2023-11-22T07:07:00;1.60;99.90
15452;DHT22;7827;53.594;9.938;2023-11-22T07:09:31;1.60;99.90
15452;DHT22;7827;53.594;9.938;2023-11-22T07:12:00;1.70;99.90
15452;DHT22;7827;53.594;9.938;2023-11-22T07:14:28;1.70;99.90
15452;DHT22;7827;53.594;9.938;2023-11-22T07:16:57;1.70;99.90
15452;DHT22;7827;53.594;9.938;2023-11-22T07:19:25;1.80;99.90
15452;DHT22;7827;53.594;9.938;2023-11-22T07:21:53;1.80;99.90
15452;DHT22;7827;53.594;9.938;2023-11-22T07:24:24;1.90;99.90
15452;DHT22;7827;53.594;9.938;2023-11-22T07:26:54;1.90;99.90
15452;DHT22;7827;53.594;9.938;2023-11-22T07:29:22;1.90;99.90
15452;DHT22;7827;53.594;9.938;2023-11-22T07:31:53;2.00;99.90
15452;DHT22;7827;53.594;9.938;2023-11-22T07:34:23;2.00;99.90
15452;DHT22;7827;53.594;9.938;2023-11-22T07:36:51;2.00;99.90
15452;DHT22;7827;53.594;9.938;2023-11-22T07:39:19;2.20;99.90
15452;DHT22;7827;53.594;9.938;2023-11-22T07:41:55;2.20;99.90
15452;DHT22;7827;53.594;9.938;2023-11-22T07:44:24;2.10;99.90
15452;DHT22;7827;53.594;9.938;2023-11-22T07:46:52;2.10;99.90
15452;DHT22;7827;53.594;9.938;2023-11-22T07:49:21;2.30;99.90
15452;DHT22;7827;53.594;9.938;2023-11-22T07:51:49;2.30;99.90
15452;DHT22;7827;53.594;9.938;2023-11-22T07:54:19;2.20;99.90
15452;DHT22;7827;53.594;9.938;2023-11-22T07:56:49;2.10;99.90
15452;DHT22;7827;53.594;9.938;2023-11-22T07:59:20;2.20;99.90
15452;DHT22;7827;53.594;9.938;2023-11-22T08:01:49;2.20;99.90
15452;DHT22;7827;53.594;9.938;2023-11-22T08:04:20;2.20;99.90
15452;DHT22;7827;53.594;9.938;2023-11-22T08:06:50;2.20;99.90
15452;DHT22;7827;53.594;9.938;2023-11-22T08:09:19;2.30;99.90
15452;DHT22;7827;53.594;9.938;2023-11-22T08:11:47;2.30;99.90
15452;DHT22;7827;53.594;9.938;2023-11-22T08:14:16;2.40;99.90
15452;DHT22;7827;53.594;9.938;2023-11-22T08:16:46;2.40;99.90
15452;DHT22;7827;53.594;9.938;2023-11-22T08:19:14;2.50;99.90
15452;DHT22;7827;53.594;9.938;2023-11-22T08:21:43;2.50;99.90
15452;DHT22;7827;53.594;9.938;2023-11-22T08:24:11;2.50;99.90
15452;DHT22;7827;53.594;9.938;2023-11-22T08:26:40;2.60;99.90
15452;DHT22;7827;53.594;9.938;2023-11-22T08:29:08;2.70;99.90
15452;DHT22;7827;53.594;9.938;2023-11-22T08:31:38;2.70;99.90
15452;DHT22;7827;53.594;9.938;2023-11-22T08:34:08;2.70;99.90
15452;DHT22;7827;53.594;9.938;2023-11-22T08:36:38;2.80;99.90
15452;DHT22;7827;53.594;9.938;2023-11-22T08:39:06;2.80;99.90
15452;DHT22;7827;53.594;9.938;2023-11-22T08:41:35;2.80;99.90
15452;DHT22;7827;53.594;9.938;2023-11-22T08:44:05;2.90;99.90
15452;DHT22;7827;53.594;9.938;2023-11-22T08:46:34;2.90;99.90
15452;DHT22;7827;53.594;9.938;2023-11-22T08:49:02;3.00;99.90
15452;DHT22;7827;53.594;9.938;2023-11-22T08:51:32;3.10;99.90
15452;DHT22;7827;53.594;9.938;2023-11-22T08:54:01;3.20;99.90
15452;DHT22;7827;53.594;9.938;2023-11-22T08:56:29;3.20;99.90
15452;DHT22;7827;53.594;9.938;2023-11-22T08:58:58;3.20;99.90
15452;DHT22;7827;53.594;9.938;2023-11-22T09:01:26;3.30;99.90
15452;DHT22;7827;53.594;9.938;2023-11-22T09:03:55;3.30;99.90
15452;DHT22;7827;53.594;9.938;2023-11-22T09:06:24;3.40;99.90
15452;DHT22;7827;53.594;9.938;2023-11-22T09:08:54;3.40;99.90
15452;DHT22;7827;53.594;9.938;2023-11-22T09:11:23;3.50;99.90
15452;DHT22;7827;53.594;9.938;2023-11-22T09:13:51;3.50;99.90
15452;DHT22;7827;53.594;9.938;2023-11-22T09:16:23;3.50;99.90
15452;DHT22;7827;53.594;9.938;2023-11-22T09:18:52;3.50;99.90
15452;DHT22;7827;53.594;9.938;2023-11-22T09:21:21;3.70;99.90
15452;DHT22;7827;53.594;9.938;2023-11-22T09:23:50;3.80;99.90
15452;DHT22;7827;53.594;9.938;2023-11-22T09:26:19;3.90;99.90
15452;DHT22;7827;53.594;9.938;2023-11-22T09:28:48;3.90;99.90
15452;DHT22;7827;53.594;9.938;2023-11-22T09:31:16;3.90;99.90
15452;DHT22;7827;53.594;9.938;2023-11-22T09:33:47;4.00;99.90
15452;DHT22;7827;53.594;9.938;2023-11-22T09:36:15;4.20;99.90
15452;DHT22;7827;53.594;9.938;2023-11-22T09:38:45;4.30;99.90
15452;DHT22;7827;53.594;9.938;2023-11-22T09:41:14;4.40;99.90
15452;DHT22;7827;53.594;9.938;2023-11-22T09:43:44;4.40;99.90
15452;DHT22;7827;53.594;9.938;2023-11-22T09:46:16;4.50;99.90
15452;DHT22;7827;53.594;9.938;2023-11-22T09:48:47;4.50;99.90
15452;DHT22;7827;53.594;9.938;2023-11-22T09:51:22;4.60;99.90
15452;DHT22;7827;53.594;9.938;2023-11-22T09:53:56;4.60;99.90
15452;DHT22;7827;53.594;9.938;2023-11-22T09:56:27;4.60;99.90
15452;DHT22;7827;53.594;9.938;2023-11-22T09:59:00;4.60;99.90
15452;DHT22;7827;53.594;9.938;2023-11-22T10:01:30;4.70;99.90
15452;DHT22;7827;53.594;9.938;2023-11-22T10:04:01;4.70;99.90
15452;DHT22;7827;53.594;9.938;2023-11-22T10:06:30;4.60;99.90
15452;DHT22;7827;53.594;9.938;2023-11-22T10:09:01;4.60;99.90
15452;DHT22;7827;53.594;9.938;2023-11-22T10:11:34;4.50;99.90
15452;DHT22;7827;53.594;9.938;2023-11-22T10:14:07;4.60;99.90
15452;DHT22;7827;53.594;9.938;2023-11-22T10:16:35;4.60;99.90
15452;DHT22;7827;53.594;9.938;2023-11-22T10:19:05;4.60;99.90
15452;DHT22;7827;53.594;9.938;2023-11-22T10:21:34;4.70;99.90
15452;DHT22;7827;53.594;9.938;2023-11-22T10:24:04;4.80;99.90
15452;DHT22;7827;53.594;9.938;2023-11-22T10:26:36;5.20;99.90
15452;DHT22;7827;53.594;9.938;2023-11-22T10:29:07;5.20;99.90
15452;DHT22;7827;53.594;9.938;2023-11-22T10:31:36;5.20;99.90
15452;DHT22;7827;53.594;9.938;2023-11-22T10:34:08;5.20;99.90
15452;DHT22;7827;53.594;9.938;2023-11-22T10:36:37;5.20;99.90
15452;DHT22;7827;53.594;9.938;2023-11-22T10:39:08;5.30;99.90
15452;DHT22;7827;53.594;9.938;2023-11-22T10:41:42;5.30;99.90
15452;DHT22;7827;53.594;9.938;2023-11-22T10:44:16;5.30;99.90
15452;DHT22;7827;53.594;9.938;2023-11-22T10:46:47;5.40;99.90
15452;DHT22;7827;53.594;9.938;2023-11-22T10:49:17;5.30;99.90
15452;DHT22;7827;53.594;9.938;2023-11-22T10:51:50;5.30;99.90
15452;DHT22;7827;53.594;9.938;2023-11-22T10:54:21;5.40;99.90
15452;DHT22;7827;53.594;9.938;2023-11-22T10:56:55;5.40;99.90
15452;DHT22;7827;53.594;9.938;2023-11-22T10:59:27;5.40;99.90
15452;DHT22;7827;53.594;9.938;2023-11-22T11:01:58;5.30;99.90
15452;DHT22;7827;53.594;9.938;2023-11-22T11:04:39;5.30;99.90
15452;DHT22;7827;53.594;9.938;2023-11-22T11:07:16;5.30;99.90
15452;DHT22;7827;53.594;9.938;2023-11-22T11:09:49;5.30;99.90
15452;DHT22;7827;53.594;9.938;2023-11-22T11:12:19;5.40;99.90
15452;DHT22;7827;53.594;9.938;2023-11-22T11:14:50;5.30;1.00
15452;DHT22;7827;53.594;9.938;2023-11-22T11:17:19;5.30;99.90
15452;DHT22;7827;53.594;9.938;2023-11-22T11:19:49;5.30;99.90
15452;DHT22;7827;53.594;9.938;2023-11-22T11:22:17;5.20;99.90
15452;DHT22;7827;53.594;9.938;2023-11-22T11:24:47;5.10;99.90
15452;DHT22;7827;53.594;9.938;2023-11-22T11:27:16;5.10;99.90
15452;DHT22;7827;53.594;9.938;2023-11-22T11:29:46;5.10;99.90
15452;DHT22;7827;53.594;9.938;2023-11-22T11:32:30;5.10;99.90
15452;DHT22;7827;53.594;9.938;2023-11-22T11:35:01;5.20;99.90
15452;DHT22;7827;53.594;9.938;2023-11-22T11:37:33;5.30;99.90
15452;DHT22;7827;53.594;9.938;2023-11-22T11:40:25;5.20;99.90
15452;DHT22;7827;53.594;9.938;2023-11-22T11:42:55;5.30;99.90
15452;DHT22;7827;53.594;9.938;2023-11-22T11:45:23;5.30;99.90
15452;DHT22;7827;53.594;9.938;2023-11-22T11:47:53;5.30;99.90
15452;DHT22;7827;53.594;9.938;2023-11-22T11:50:22;5.30;99.90
15452;DHT22;7827;53.594;9.938;2023-11-22T11:52:50;5.30;99.90
15452;DHT22;7827;53.594;9.938;2023-11-22T11:55:19;5.30;99.90
15452;DHT22;7827;53.594;9.938;2023-11-22T11:57:47;5.30;99.90
15452;DHT22;7827;53.594;9.938;2023-11-22T12:00:16;5.40;99.90
15452;DHT22;7827;53.594;9.938;2023-11-22T12:02:45;5.40;99.90
15452;DHT22;7827;53.594;9.938;2023-11-22T12:05:15;5.50;99.90
15452;DHT22;7827;53.594;9.938;2023-11-22T12:07:47;5.50;99.90
15452;DHT22;7827;53.594;9.938;2023-11-22T12:10:16;5.50;92.10
15452;DHT22;7827;53.594;9.938;2023-11-22T12:12:44;5.50;72.70
15452;DHT22;7827;53.594;9.938;2023-11-22T12:15:14;5.40;75.50
15452;DHT22;7827;53.594;9.938;2023-11-22T12:17:42;5.40;46.70
15452;DHT22;7827;53.594;9.938;2023-11-22T12:20:12;5.50;58.70
15452;DHT22;7827;53.594;9.938;2023-11-22T12:22:47;5.40;73.90
15452;DHT22;7827;53.594;9.938;2023-11-22T12:25:16;5.40;54.60
15452;DHT22;7827;53.594;9.938;2023-11-22T12:27:45;5.40;73.00
15452;DHT22;7827;53.594;9.938;2023-11-22T12:30:28;5.50;60.40
15452;DHT22;7827;53.594;9.938;2023-11-22T12:33:02;5.40;41.10
15452;DHT22;7827;53.594;9.938;2023-11-22T12:35:33;5.30;43.40
15452;DHT22;7827;53.594;9.938;2023-11-22T12:38:05;5.30;40.00
15452;DHT22;7827;53.594;9.938;2023-11-22T12:40:34;5.20;70.50
15452;DHT22;7827;53.594;9.938;2023-11-22T12:43:03;5.30;62.10
15452;DHT22;7827;53.594;9.938;2023-11-22T12:45:33;5.30;80.40
15452;DHT22;7827;53.594;9.938;2023-11-22T12:48:23;5.30;37.80
15452;DHT22;7827;53.594;9.938;2023-11-22T12:50:53;5.30;59.40
15452;DHT22;7827;53.594;9.938;2023-11-22T12:53:23;5.30;81.50
15452;DHT22;7827;53.594;9.938;2023-11-22T12:55:55;5.30;49.60
15452;DHT22;7827;53.594;9.938;2023-11-22T12:58:25;5.20;48.50
15452;DHT22;7827;53.594;9.938;2023-11-22T13:00:55;5.20;62.70
15452;DHT22;7827;53.594;9.938;2023-11-22T13:03:27;5.20;63.00
15452;DHT22;7827;53.594;9.938;2023-11-22T13:05:56;5.10;87.50
15452;DHT22;7827;53.594;9.938;2023-11-22T13:08:26;5.10;93.30
15452;DHT22;7827;53.594;9.938;2023-11-22T13:10:57;5.10;91.40
15452;DHT22;7827;53.594;9.938;2023-11-22T13:13:26;5.10;86.00
15452;DHT22;7827;53.594;9.938;2023-11-22T13:15:57;5.10;77.20
15452;DHT22;7827;53.594;9.938;2023-11-22T13:18:25;5.00;63.20
15452;DHT22;7827;53.594;9.938;2023-11-22T13:20:54;5.00;68.60
15452;DHT22;7827;53.594;9.938;2023-11-22T13:23:23;4.90;58.30
15452;DHT22;7827;53.594;9.938;2023-11-22T13:25:52;4.80;59.60
15452;DHT22;7827;53.594;9.938;2023-11-22T13:28:21;4.80;56.60
15452;DHT22;7827;53.594;9.938;2023-11-22T13:30:51;4.80;74.20
15452;DHT22;7827;53.594;9.938;2023-11-22T13:33:20;4.80;59.40
15452;DHT22;7827;53.594;9.938;2023-11-22T13:35:49;4.70;61.20
15452;DHT22;7827;53.594;9.938;2023-11-22T13:38:18;4.70;75.40
15452;DHT22;7827;53.594;9.938;2023-11-22T13:40:46;4.70;90.10
15452;DHT22;7827;53.594;9.938;2023-11-22T13:43:16;4.70;90.40
15452;DHT22;7827;53.594;9.938;2023-11-22T13:45:45;4.70;87.20
15452;DHT22;7827;53.594;9.938;2023-11-22T13:48:16;4.70;89.10
15452;DHT22;7827;53.594;9.938;2023-11-22T13:50:44;4.60;92.30
15452;DHT22;7827;53.594;9.938;2023-11-22T13:53:13;4.60;96.80
15452;DHT22;7827;53.594;9.938;2023-11-22T13:55:41;4.50;97.30
15452;DHT22;7827;53.594;9.938;2023-11-22T13:58:10;4.50;99.90
15452;DHT22;7827;53.594;9.938;2023-11-22T14:00:39;4.50;99.90
15452;DHT22;7827;53.594;9.938;2023-11-22T14:03:11;4.50;99.90
15452;DHT22;7827;53.594;9.938;2023-11-22T14:05:40;4.50;99.90
15452;DHT22;7827;53.594;9.938;2023-11-22T14:08:08;4.40;99.90
15452;DHT22;7827;53.594;9.938;2023-11-22T14:10:36;4.40;99.90
15452;DHT22;7827;53.594;9.938;2023-11-22T14:13:05;4.30;99.90
15452;DHT22;7827;53.594;9.938;2023-11-22T14:15:35;4.40;99.90
15452;DHT22;7827;53.594;9.938;2023-11-22T14:18:05;4.50;99.90
15452;DHT22;7827;53.594;9.938;2023-11-22T14:20:34;4.50;99.90
15452;DHT22;7827;53.594;9.938;2023-11-22T14:23:03;4.50;99.90
15452;DHT22;7827;53.594;9.938;2023-11-22T14:25:31;4.50;99.90
15452;DHT22;7827;53.594;9.938;2023-11-22T14:28:00;4.40;99.90
15452;DHT22;7827;53.594;9.938;2023-11-22T14:30:28;4.40;99.90
15452;DHT22;7827;53.594;9.938;2023-11-22T14:33:02;4.50;99.90
15452;DHT22;7827;53.594;9.938;2023-11-22T14:35:36;4.40;99.90
15452;DHT22;7827;53.594;9.938;2023-11-22T14:38:06;4.30;99.90
15452;DHT22;7827;53.594;9.938;2023-11-22T14:40:35;4.30;99.90
15452;DHT22;7827;53.594;9.938;2023-11-22T14:43:05;4.20;99.90
15452;DHT22;7827;53.594;9.938;2023-11-22T14:45:34;4.10;99.90
15452;DHT22;7827;53.594;9.938;2023-11-22T14:48:04;4.10;99.90
15452;DHT22;7827;53.594;9.938;2023-11-22T14:50:35;4.20;99.90
15452;DHT22;7827;53.594;9.938;2023-11-22T14:53:03;4.20;99.90
15452;DHT22;7827;53.594;9.938;2023-11-22T14:55:33;4.20;99.90
15452;DHT22;7827;53.594;9.938;2023-11-22T14:58:07;4.10;99.90
15452;DHT22;7827;53.594;9.938;2023-11-22T15:00:35;4.10;99.90
15452;DHT22;7827;53.594;9.938;2023-11-22T15:03:04;4.10;99.90
15452;DHT22;7827;53.594;9.938;2023-11-22T15:05:33;4.10;99.90
15452;DHT22;7827;53.594;9.938;2023-11-22T15:08:03;4.00;99.90
15452;DHT22;7827;53.594;9.938;2023-11-22T15:10:34;4.00;99.90
15452;DHT22;7827;53.594;9.938;2023-11-22T15:13:03;4.10;99.50
15452;DHT22;7827;53.594;9.938;2023-11-22T15:15:31;4.00;96.60
15452;DHT22;7827;53.594;9.938;2023-11-22T15:18:00;4.00;97.70
15452;DHT22;7827;53.594;9.938;2023-11-22T15:20:28;4.00;97.40
15452;DHT22;7827;53.594;9.938;2023-11-22T15:22:57;4.00;98.10
15452;DHT22;7827;53.594;9.938;2023-11-22T15:25:27;4.10;98.20
15452;DHT22;7827;53.594;9.938;2023-11-22T15:27:55;4.10;97.90
15452;DHT22;7827;53.594;9.938;2023-11-22T15:30:26;4.10;98.60
15452;DHT22;7827;53.594;9.938;2023-11-22T15:32:54;4.10;99.40
15452;DHT22;7827;53.594;9.938;2023-11-22T15:35:22;4.10;98.30
15452;DHT22;7827;53.594;9.938;2023-11-22T15:37:51;4.00;97.30
15452;DHT22;7827;53.594;9.938;2023-11-22T15:40:19;4.00;96.50
15452;DHT22;7827;53.594;9.938;2023-11-22T15:42:50;3.90;99.90
15452;DHT22;7827;53.594;9.938;2023-11-22T15:45:18;4.00;96.90
15452;DHT22;7827;53.594;9.938;2023-11-22T15:47:48;4.00;95.40
15452;DHT22;7827;53.594;9.938;2023-11-22T15:50:16;4.00;96.20
15452;DHT22;7827;53.594;9.938;2023-11-22T15:52:45;3.90;97.30
15452;DHT22;7827;53.594;9.938;2023-11-22T15:55:13;3.90;98.30
15452;DHT22;7827;53.594;9.938;2023-11-22T15:57:42;3.90;98.90
15452;DHT22;7827;53.594;9.938;2023-11-22T16:00:12;3.90;99.90
15452;DHT22;7827;53.594;9.938;2023-11-22T16:02:42;3.90;99.90
15452;DHT22;7827;53.594;9.938;2023-11-22T16:05:11;3.90;99.90
15452;DHT22;7827;53.594;9.938;2023-11-22T16:07:40;4.00;99.90
15452;DHT22;7827;53.594;9.938;2023-11-22T16:10:09;4.00;99.90
15452;DHT22;7827;53.594;9.938;2023-11-22T16:12:38;3.90;99.20
15452;DHT22;7827;53.594;9.938;2023-11-22T16:15:08;3.90;99.90
15452;DHT22;7827;53.594;9.938;2023-11-22T16:17:40;3.80;99.90